sensor_id;sensor_type;location;lat;lon;timestamp;temperature;humidity
6792;DHT22;3433;48.730;9.108;2024-01-07T00:00:28;6.90;99.90
6792;DHT22;3433;48.730;9.108;2024-01-07T00:02:56;6.90;99.90
6792;DHT22;3433;48.730;9.108;2024-01-07T00:05:23;6.90;99.90
6792;DHT22;3433;48.730;9.108;2024-01-07T00:07:51;7.00;99.90
6792;DHT22;3433;48.730;9.108;2024-01-07T00:10:18;7.00;99.90
6792;DHT22;3433;48.730;9.108;2024-01-07T00:12:45;7.00;99.90
6792;DHT22;3433;48.730;9.108;2024-01-07T00:15:12;7.00;99.90
6792;DHT22;3433;48.730;9.108;2024-01-07T00:17:38;7.00;99.90
6792;DHT22;3433;48.730;9.108;2024-01-07T00:20:07;6.90;99.90
6792;DHT22;3433;48.730;9.108;2024-01-07T00:22:34;6.90;99.90
6792;DHT22;3433;48.730;9.108;2024-01-07T00:25:02;6.90;99.90
6792;DHT22;3433;48.730;9.108;2024-01-07T00:27:29;6.80;99.90
6792;DHT22;3433;48.730;9.108;2024-01-07T00:29:56;6.80;99.90
6792;DHT22;3433;48.730;9.108;2024-01-07T00:32:23;6.90;99.90
6792;DHT22;3433;48.730;9.108;2024-01-07T00:34:49;7.00;99.90
6792;DHT22;3433;48.730;9.108;2024-01-07T00:37:16;6.90;99.90
6792;DHT22;3433;48.730;9.108;2024-01-07T00:39:43;7.00;99.90
6792;DHT22;3433;48.730;9.108;2024-01-07T00:42:12;6.90;99.90
6792;DHT22;3433;48.730;9.108;2024-01-07T00:44:39;6.90;99.90
6792;DHT22;3433;48.730;9.108;2024-01-07T00:47:06;7.00;99.90
6792;DHT22;3433;48.730;9.108;2024-01-07T00:49:33;6.90;99.90
6792;DHT22;3433;48.730;9.108;2024-01-07T00:52:00;6.90;99.90
6792;DHT22;3433;48.730;9.108;2024-01-07T00:54:27;6.90;99.90
6792;DHT22;3433;48.730;9.108;2024-01-07T00:56:53;7.00;99.90
6792;DHT22;3433;48.730;9.108;2024-01-07T00:59:22;6.90;99.90
6792;DHT22;3433;48.730;9.108;2024-01-07T01:01:48;6.90;99.90
6792;DHT22;3433;48.730;9.108;2024-01-07T01:04:16;6.90;99.90
6792;DHT22;3433;48.730;9.108;2024-01-07T01:06:43;6.90;99.90
6792;DHT22;3433;48.730;9.108;2024-01-07T01:09:09;6.90;99.90
6792;DHT22;3433;48.730;9.108;2024-01-07T01:11:36;6.90;99.90
6792;DHT22;3433;48.730;9.108;2024-01-07T01:14:03;6.80;99.90
6792;DHT22;3433;48.730;9.108;2024-01-07T01:16:31;6.90;99.90
6792;DHT22;3433;48.730;9.108;2024-01-07T01:18:58;6.90;99.90
6792;DHT22;3433;48.730;9.108;2024-01-07T01:21:25;6.80;99.90
6792;DHT22;3433;48.730;9.108;2024-01-07T01:23:51;6.80;99.90
6792;DHT22;3433;48.730;9.108;2024-01-07T01:26:18;6.80;99.90
6792;DHT22;3433;48.730;9.108;2024-01-07T01:28:45;6.80;99.90
6792;DHT22;3433;48.730;9.108;2024-01-07T01:31:13;6.80;99.90
6792;DHT22;3433;48.730;9.108;2024-01-07T01:33:41;6.80;99.90
6792;DHT22;3433;48.730;9.108;2024-01-07T01:36:09;6.80;99.90
6792;DHT22;3433;48.730;9.108;2024-01-07T01:38:39;6.80;99.90
6792;DHT22;3433;48.730;9.108;2024-01-07T01:41:06;6.80;99.90
6792;DHT22;3433;48.730;9.108;2024-01-07T01:43:32;6.70;99.90
6792;DHT22;3433;48.730;9.108;2024-01-07T01:45:59;6.70;99.90
6792;DHT22;3433;48.730;9.108;2024-01-07T01:48:26;6.70;99.90
6792;DHT22;3433;48.730;9.108;2024-01-07T01:50:55;6.60;99.90
6792;DHT22;3433;48.730;9.108;2024-01-07T01:53:24;6.70;99.90
6792;DHT22;3433;48.730;9.108;2024-01-07T01:55:51;6.50;99.90
6792;DHT22;3433;48.730;9.108;2024-01-07T01:58:19;6.60;99.90
6792;DHT22;3433;48.730;9.108;2024-01-07T02:00:48;6.40;99.90
6792;DHT22;3433;48.730;9.108;2024-01-07T02:03:16;6.40;99.90
6792;DHT22;3433;48.730;9.108;2024-01-07T02:05:43;6.50;99.90
6792;DHT22;3433;48.730;9.108;2024-01-07T02:08:12;6.50;99.90
6792;DHT22;3433;48.730;9.108;2024-01-07T02:10:39;6.50;99.90
6792;DHT22;3433;48.730;9.108;2024-01-07T02:13:06;6.50;99.90
6792;DHT22;3433;48.730;9.108;2024-01-07T02:15:33;6.50;99.90
6792;DHT22;3433;48.730;9.108;2024-01-07T02:18:00;6.60;99.90
6792;DHT22;3433;48.730;9.108;2024-01-07T02:20:27;6.50;99.90
6792;DHT22;3433;48.730;9.108;2024-01-07T02:22:54;6.50;99.90
6792;DHT22;3433;48.730;9.108;2024-01-07T02:25:24;6.50;99.90
6792;DHT22;3433;48.730;9.108;2024-01-07T02:27:51;6.30;99.90
6792;DHT22;3433;48.730;9.108;2024-01-07T02:30:18;6.30;99.90
6792;DHT22;3433;48.730;9.108;2024-01-07T02:32:45;6.30;99.90
6792;DHT22;3433;48.730;9.108;2024-01-07T02:35:11;6.40;99.90
6792;DHT22;3433;48.730;9.108;2024-01-07T02:37:38;6.50;99.90
6792;DHT22;3433;48.730;9.108;2024-01-07T02:40:06;6.40;99.90
6792;DHT22;3433;48.730;9.108;2024-01-07T02:42:35;6.40;99.90
6792;DHT22;3433;48.730;9.108;2024-01-07T02:45:02;6.40;99.90
6792;DHT22;3433;48.730;9.108;2024-01-07T02:47:29;6.50;99.90
6792;DHT22;3433;48.730;9.108;2024-01-07T02:49:56;6.50;99.90
6792;DHT22;3433;48.730;9.108;2024-01-07T02:52:22;6.40;99.90
6792;DHT22;3433;48.730;9.108;2024-01-07T02:54:49;6.40;99.90
6792;DHT22;3433;48.730;9.108;2024-01-07T02:57:16;6.40;99.90
6792;DHT22;3433;48.730;9.108;2024-01-07T02:59:44;6.50;99.90
6792;DHT22;3433;48.730;9.108;2024-01-07T03:02:11;6.40;99.90
6792;DHT22;3433;48.730;9.108;2024-01-07T03:04:38;6.30;99.90
6792;DHT22;3433;48.730;9.108;2024-01-07T03:07:05;6.30;99.90
6792;DHT22;3433;48.730;9.108;2024-01-07T03:09:32;6.30;99.90
6792;DHT22;3433;48.730;9.108;2024-01-07T03:11:59;6.20;99.90
6792;DHT22;3433;48.730;9.108;2024-01-07T03:14:26;6.20;99.90
6792;DHT22;3433;48.730;9.108;2024-01-07T03:16:54;6.20;99.90
6792;DHT22;3433;48.730;9.108;2024-01-07T03:19:21;6.20;99.90
6792;DHT22;3433;48.730;9.108;2024-01-07T03:21:48;6.20;99.90
6792;DHT22;3433;48.730;9.108;2024-01-07T03:24:15;6.20;99.90
6792;DHT22;3433;48.730;9.108;2024-01-07T03:26:42;6.20;99.90
6792;DHT22;3433;48.730;9.108;2024-01-07T03:29:09;6.30;99.90
6792;DHT22;3433;48.730;9.108;2024-01-07T03:31:35;6.30;99.90
6792;DHT22;3433;48.730;9.108;2024-01-07T03:34:04;6.30;99.90
6792;DHT22;3433;48.730;9.108;2024-01-07T03:36:30;6.30;99.90
6792;DHT22;3433;48.730;9.108;2024-01-07T03:38:57;6.30;99.90
6792;DHT22;3433;48.730;9.108;2024-01-07T03:41:24;6.20;99.90
6792;DHT22;3433;48.730;9.108;2024-01-07T03:43:51;6.10;99.90
6792;DHT22;3433;48.730;9.108;2024-01-07T03:46:18;6.20;99.90
6792;DHT22;3433;48.730;9.108;2024-01-07T03:48:46;6.20;99.90
6792;DHT22;3433;48.730;9.108;2024-01-07T03:51:14;6.20;99.90
6792;DHT22;3433;48.730;9.108;2024-01-07T03:53:41;6.30;99.90
6792;DHT22;3433;48.730;9.108;2024-01-07T03:56:07;6.30;99.90
6792;DHT22;3433;48.730;9.108;2024-01-07T03:58:34;6.20;99.90
6792;DHT22;3433;48.730;9.108;2024-01-07T04:01:01;6.20;99.90
6792;DHT22;3433;48.730;9.108;2024-01-07T04:03:28;6.10;99.90
6792;DHT22;3433;48.730;9.108;2024-01-07T04:05:55;5.90;99.90
6792;DHT22;3433;48.730;9.108;2024-01-07T04:08:23;6.00;99.90
6792;DHT22;3433;48.730;9.108;2024-01-07T04:10:50;6.10;99.90
6792;DHT22;3433;48.730;9.108;2024-01-07T04:13:17;6.10;99.90
6792;DHT22;3433;48.730;9.108;2024-01-07T04:15:44;6.20;99.90
6792;DHT22;3433;48.730;9.108;2024-01-07T04:18:11;6.20;99.90
6792;DHT22;3433;48.730;9.108;2024-01-07T04:20:38;6.30;99.90
6792;DHT22;3433;48.730;9.108;2024-01-07T04:23:04;6.30;99.90
6792;DHT22;3433;48.730;9.108;2024-01-07T04:25:33;6.20;99.90
6792;DHT22;3433;48.730;9.108;2024-01-07T04:28:00;6.30;99.90
6792;DHT22;3433;48.730;9.108;2024-01-07T04:30:26;6.30;99.90
6792;DHT22;3433;48.730;9.108;2024-01-07T04:32:53;6.20;99.90
6792;DHT22;3433;48.730;9.108;2024-01-07T04:35:20;6.20;99.90
6792;DHT22;3433;48.730;9.108;2024-01-07T04:37:47;6.30;99.90
6792;DHT22;3433;48.730;9.108;2024-01-07T04:40:14;6.30;99.90
6792;DHT22;3433;48.730;9.108;2024-01-07T04:42:42;6.30;99.90
6792;DHT22;3433;48.730;9.108;2024-01-07T04:45:09;6.00;99.90
6792;DHT22;3433;48.730;9.108;2024-01-07T04:47:36;6.00;99.90
6792;DHT22;3433;48.730;9.108;2024-01-07T04:50:04;6.10;99.90
6792;DHT22;3433;48.730;9.108;2024-01-07T04:52:31;6.00;99.90
6792;DHT22;3433;48.730;9.108;2024-01-07T04:54:58;5.80;99.90
6792;DHT22;3433;48.730;9.108;2024-01-07T04:57:24;6.00;99.90
6792;DHT22;3433;48.730;9.108;2024-01-07T04:59:53;6.10;99.90
6792;DHT22;3433;48.730;9.108;2024-01-07T05:02:20;6.30;99.90
6792;DHT22;3433;48.730;9.108;2024-01-07T05:04:47;6.30;99.90
6792;DHT22;3433;48.730;9.108;2024-01-07T05:07:14;6.30;99.90
6792;DHT22;3433;48.730;9.108;2024-01-07T05:09:41;6.30;99.90
6792;DHT22;3433;48.730;9.108;2024-01-07T05:12:08;6.20;99.90
6792;DHT22;3433;48.730;9.108;2024-01-07T05:14:35;6.10;99.90
6792;DHT22;3433;48.730;9.108;2024-01-07T05:17:04;6.20;99.90
6792;DHT22;3433;48.730;9.108;2024-01-07T05:19:31;6.10;99.90
6792;DHT22;3433;48.730;9.108;2024-01-07T05:21:58;6.00;99.90
6792;DHT22;3433;48.730;9.108;2024-01-07T05:24:25;6.10;99.90
6792;DHT22;3433;48.730;9.108;2024-01-07T05:26:53;6.10;99.90
6792;DHT22;3433;48.730;9.108;2024-01-07T05:29:20;6.00;99.90
6792;DHT22;3433;48.730;9.108;2024-01-07T05:31:47;5.90;99.90
6792;DHT22;3433;48.730;9.108;2024-01-07T05:34:16;5.90;99.90
6792;DHT22;3433;48.730;9.108;2024-01-07T05:36:42;6.00;99.90
6792;DHT22;3433;48.730;9.108;2024-01-07T05:39:09;6.10;99.90
6792;DHT22;3433;48.730;9.108;2024-01-07T05:41:37;5.90;99.90
6792;DHT22;3433;48.730;9.108;2024-01-07T05:44:06;5.90;99.90
6792;DHT22;3433;48.730;9.108;2024-01-07T05:46:33;5.90;99.90
6792;DHT22;3433;48.730;9.108;2024-01-07T05:49:00;5.90;99.90
6792;DHT22;3433;48.730;9.108;2024-01-07T05:51:29;5.90;99.90
6792;DHT22;3433;48.730;9.108;2024-01-07T05:53:55;6.00;99.90
6792;DHT22;3433;48.730;9.108;2024-01-07T05:56:22;6.00;99.90
6792;DHT22;3433;48.730;9.108;2024-01-07T05:58:49;6.00;99.90
6792;DHT22;3433;48.730;9.108;2024-01-07T06:01:19;5.80;99.90
6792;DHT22;3433;48.730;9.108;2024-01-07T06:03:46;5.70;99.90
6792;DHT22;3433;48.730;9.108;2024-01-07T06:06:13;5.90;99.90
6792;DHT22;3433;48.730;9.108;2024-01-07T06:08:42;5.90;99.90
6792;DHT22;3433;48.730;9.108;2024-01-07T06:11:09;6.00;99.90
6792;DHT22;3433;48.730;9.108;2024-01-07T06:13:37;5.90;99.90
6792;DHT22;3433;48.730;9.108;2024-01-07T06:16:05;5.70;99.90
6792;DHT22;3433;48.730;9.108;2024-01-07T06:18:32;5.80;99.90
6792;DHT22;3433;48.730;9.108;2024-01-07T06:20:59;5.80;99.90
6792;DHT22;3433;48.730;9.108;2024-01-07T06:23:26;5.70;99.90
6792;DHT22;3433;48.730;9.108;2024-01-07T06:25:54;5.80;99.90
6792;DHT22;3433;48.730;9.108;2024-01-07T06:28:21;5.70;99.90
6792;DHT22;3433;48.730;9.108;2024-01-07T06:30:48;5.70;99.90
6792;DHT22;3433;48.730;9.108;2024-01-07T06:33:15;5.90;99.90
6792;DHT22;3433;48.730;9.108;2024-01-07T06:35:41;5.90;99.90
6792;DHT22;3433;48.730;9.108;2024-01-07T06:38:08;5.80;99.90
6792;DHT22;3433;48.730;9.108;2024-01-07T06:40:35;5.80;99.90
6792;DHT22;3433;48.730;9.108;2024-01-07T06:43:03;5.80;99.90
6792;DHT22;3433;48.730;9.108;2024-01-07T06:45:31;5.80;99.90
6792;DHT22;3433;48.730;9.108;2024-01-07T06:47:58;5.90;99.90
6792;DHT22;3433;48.730;9.108;2024-01-07T06:50:26;5.90;99.90
6792;DHT22;3433;48.730;9.108;2024-01-07T06:52:53;5.90;99.90
6792;DHT22;3433;48.730;9.108;2024-01-07T06:55:21;6.00;99.90
6792;DHT22;3433;48.730;9.108;2024-01-07T06:57:48;5.90;99.90
6792;DHT22;3433;48.730;9.108;2024-01-07T07:00:17;5.90;99.90
6792;DHT22;3433;48.730;9.108;2024-01-07T07:02:44;5.90;99.90
6792;DHT22;3433;48.730;9.108;2024-01-07T07:05:11;5.80;99.90
6792;DHT22;3433;48.730;9.108;2024-01-07T07:07:38;5.70;99.90
6792;DHT22;3433;48.730;9.108;2024-01-07T07:10:05;5.60;99.90
6792;DHT22;3433;48.730;9.108;2024-01-07T07:12:32;5.70;99.90
6792;DHT22;3433;48.730;9.108;2024-01-07T07:14:58;5.50;99.90
6792;DHT22;3433;48.730;9.108;2024-01-07T07:17:27;5.60;99.90
6792;DHT22;3433;48.730;9.108;2024-01-07T07:19:54;5.60;99.90
6792;DHT22;3433;48.730;9.108;2024-01-07T07:22:20;5.60;99.90
6792;DHT22;3433;48.730;9.108;2024-01-07T07:24:47;5.60;99.90
6792;DHT22;3433;48.730;9.108;2024-01-07T07:27:14;5.70;99.90
6792;DHT22;3433;48.730;9.108;2024-01-07T07:29:41;5.60;99.90
6792;DHT22;3433;48.730;9.108;2024-01-07T07:32:08;5.60;99.90
6792;DHT22;3433;48.730;9.108;2024-01-07T07:34:36;5.80;99.90
6792;DHT22;3433;48.730;9.108;2024-01-07T07:37:04;5.60;99.90
6792;DHT22;3433;48.730;9.108;2024-01-07T07:39:30;5.60;99.90
6792;DHT22;3433;48.730;9.108;2024-01-07T07:41:57;5.60;99.90
6792;DHT22;3433;48.730;9.108;2024-01-07T07:44:25;5.50;99.90
6792;DHT22;3433;48.730;9.108;2024-01-07T07:46:51;5.50;99.90
6792;DHT22;3433;48.730;9.108;2024-01-07T07:49:18;5.60;99.90
6792;DHT22;3433;48.730;9.108;2024-01-07T07:51:46;5.60;99.90
6792;DHT22;3433;48.730;9.108;2024-01-07T07:54:13;5.50;99.90
6792;DHT22;3433;48.730;9.108;2024-01-07T07:56:40;5.50;99.90
6792;DHT22;3433;48.730;9.108;2024-01-07T07:59:07;5.60;99.90
6792;DHT22;3433;48.730;9.108;2024-01-07T08:01:34;5.60;99.90
6792;DHT22;3433;48.730;9.108;2024-01-07T08:04:01;5.40;99.90
6792;DHT22;3433;48.730;9.108;2024-01-07T08:06:30;5.30;99.90
6792;DHT22;3433;48.730;9.108;2024-01-07T08:08:58;5.30;99.90
6792;DHT22;3433;48.730;9.108;2024-01-07T08:11:25;5.20;99.90
6792;DHT22;3433;48.730;9.108;2024-01-07T08:13:52;5.30;99.90
6792;DHT22;3433;48.730;9.108;2024-01-07T08:16:19;5.30;99.90
6792;DHT22;3433;48.730;9.108;2024-01-07T08:18:46;5.40;99.90
6792;DHT22;3433;48.730;9.108;2024-01-07T08:21:13;5.50;99.90
6792;DHT22;3433;48.730;9.108;2024-01-07T08:23:40;5.40;99.90
6792;DHT22;3433;48.730;9.108;2024-01-07T08:26:08;5.40;99.90
6792;DHT22;3433;48.730;9.108;2024-01-07T08:28:35;5.30;99.90
6792;DHT22;3433;48.730;9.108;2024-01-07T08:31:01;5.40;99.90
6792;DHT22;3433;48.730;9.108;2024-01-07T08:33:28;5.20;99.90
6792;DHT22;3433;48.730;9.108;2024-01-07T08:35:58;5.30;99.90
6792;DHT22;3433;48.730;9.108;2024-01-07T08:38:25;5.40;99.90
6792;DHT22;3433;48.730;9.108;2024-01-07T08:40:52;5.40;99.90
6792;DHT22;3433;48.730;9.108;2024-01-07T08:43:20;5.40;99.90
6792;DHT22;3433;48.730;9.108;2024-01-07T08:45:47;5.30;99.90
6792;DHT22;3433;48.730;9.108;2024-01-07T08:48:14;5.20;99.90
6792;DHT22;3433;48.730;9.108;2024-01-07T08:50:41;5.30;99.90
6792;DHT22;3433;48.730;9.108;2024-01-07T08:53:07;5.00;99.90
6792;DHT22;3433;48.730;9.108;2024-01-07T08:55:34;5.30;99.90
6792;DHT22;3433;48.730;9.108;2024-01-07T08:58:01;5.30;99.90
6792;DHT22;3433;48.730;9.108;2024-01-07T09:00:29;5.40;99.90
6792;DHT22;3433;48.730;9.108;2024-01-07T09:02:57;5.40;99.90
6792;DHT22;3433;48.730;9.108;2024-01-07T09:05:24;5.40;99.90
6792;DHT22;3433;48.730;9.108;2024-01-07T09:07:50;5.30;99.90
6792;DHT22;3433;48.730;9.108;2024-01-07T09:10:17;5.40;99.90
6792;DHT22;3433;48.730;9.108;2024-01-07T09:12:46;5.30;99.90
6792;DHT22;3433;48.730;9.108;2024-01-07T09:15:13;5.20;99.90
6792;DHT22;3433;48.730;9.108;2024-01-07T09:17:41;5.10;99.90
6792;DHT22;3433;48.730;9.108;2024-01-07T09:20:09;4.90;99.90
6792;DHT22;3433;48.730;9.108;2024-01-07T09:22:36;4.80;99.90
6792;DHT22;3433;48.730;9.108;2024-01-07T09:25:04;4.70;99.90
6792;DHT22;3433;48.730;9.108;2024-01-07T09:27:32;4.50;99.90
6792;DHT22;3433;48.730;9.108;2024-01-07T09:29:59;4.60;99.90
6792;DHT22;3433;48.730;9.108;2024-01-07T09:32:27;4.30;99.90
6792;DHT22;3433;48.730;9.108;2024-01-07T09:34:55;4.70;99.90
6792;DHT22;3433;48.730;9.108;2024-01-07T09:37:23;4.80;99.90
6792;DHT22;3433;48.730;9.108;2024-01-07T09:39:51;4.80;99.90
6792;DHT22;3433;48.730;9.108;2024-01-07T09:42:18;4.50;99.90
6792;DHT22;3433;48.730;9.108;2024-01-07T09:44:45;4.60;99.90
6792;DHT22;3433;48.730;9.108;2024-01-07T09:47:14;4.80;99.90
6792;DHT22;3433;48.730;9.108;2024-01-07T09:49:42;5.00;99.90
6792;DHT22;3433;48.730;9.108;2024-01-07T09:52:11;5.00;99.90
6792;DHT22;3433;48.730;9.108;2024-01-07T09:54:41;5.00;99.90
6792;DHT22;3433;48.730;9.108;2024-01-07T09:57:09;5.20;99.90
6792;DHT22;3433;48.730;9.108;2024-01-07T09:59:36;5.30;99.90
6792;DHT22;3433;48.730;9.108;2024-01-07T10:02:04;5.20;99.90
6792;DHT22;3433;48.730;9.108;2024-01-07T10:04:31;5.20;99.90
6792;DHT22;3433;48.730;9.108;2024-01-07T10:06:58;4.90;99.90
6792;DHT22;3433;48.730;9.108;2024-01-07T10:09:29;4.80;99.90
6792;DHT22;3433;48.730;9.108;2024-01-07T10:11:56;4.90;99.90
6792;DHT22;3433;48.730;9.108;2024-01-07T10:14:23;4.70;99.90
6792;DHT22;3433;48.730;9.108;2024-01-07T10:16:51;4.80;99.90
6792;DHT22;3433;48.730;9.108;2024-01-07T10:19:20;4.40;99.90
6792;DHT22;3433;48.730;9.108;2024-01-07T10:21:58;4.70;99.90
6792;DHT22;3433;48.730;9.108;2024-01-07T10:24:35;4.90;99.90
6792;DHT22;3433;48.730;9.108;2024-01-07T10:27:02;4.90;99.90
6792;DHT22;3433;48.730;9.108;2024-01-07T10:29:29;4.90;99.90
6792;DHT22;3433;48.730;9.108;2024-01-07T10:31:57;5.10;99.90
6792;DHT22;3433;48.730;9.108;2024-01-07T10:34:24;5.00;99.90
6792;DHT22;3433;48.730;9.108;2024-01-07T10:36:52;4.90;99.90
6792;DHT22;3433;48.730;9.108;2024-01-07T10:39:19;4.80;99.90
6792;DHT22;3433;48.730;9.108;2024-01-07T10:41:49;4.80;99.90
6792;DHT22;3433;48.730;9.108;2024-01-07T10:44:18;4.90;99.90
6792;DHT22;3433;48.730;9.108;2024-01-07T10:46:46;4.80;99.90
6792;DHT22;3433;48.730;9.108;2024-01-07T10:49:19;4.80;99.90
6792;DHT22;3433;48.730;9.108;2024-01-07T10:51:53;4.80;99.90
6792;DHT22;3433;48.730;9.108;2024-01-07T10:54:24;4.50;99.90
6792;DHT22;3433;48.730;9.108;2024-01-07T10:56:58;4.20;99.90
6792;DHT22;3433;48.730;9.108;2024-01-07T10:59:26;4.00;99.90
6792;DHT22;3433;48.730;9.108;2024-01-07T11:01:54;4.30;99.90
6792;DHT22;3433;48.730;9.108;2024-01-07T11:04:26;4.00;99.90
6792;DHT22;3433;48.730;9.108;2024-01-07T11:07:00;4.20;99.90
6792;DHT22;3433;48.730;9.108;2024-01-07T11:09:42;4.50;99.90
6792;DHT22;3433;48.730;9.108;2024-01-07T11:12:12;4.60;99.90
6792;DHT22;3433;48.730;9.108;2024-01-07T11:14:40;4.20;99.90
6792;DHT22;3433;48.730;9.108;2024-01-07T11:17:10;3.50;99.90
6792;DHT22;3433;48.730;9.108;2024-01-07T11:19:40;3.20;99.90
6792;DHT22;3433;48.730;9.108;2024-01-07T11:22:23;3.60;99.90
6792;DHT22;3433;48.730;9.108;2024-01-07T11:24:53;3.30;99.90
6792;DHT22;3433;48.730;9.108;2024-01-07T11:27:23;3.20;99.90
6792;DHT22;3433;48.730;9.108;2024-01-07T11:29:54;3.10;99.90
6792;DHT22;3433;48.730;9.108;2024-01-07T11:32:22;3.10;99.90
6792;DHT22;3433;48.730;9.108;2024-01-07T11:34:51;3.20;99.90
6792;DHT22;3433;48.730;9.108;2024-01-07T11:37:19;3.50;99.90
6792;DHT22;3433;48.730;9.108;2024-01-07T11:39:56;3.80;99.90
6792;DHT22;3433;48.730;9.108;2024-01-07T11:42:24;3.60;99.90
6792;DHT22;3433;48.730;9.108;2024-01-07T11:44:54;3.50;99.90
6792;DHT22;3433;48.730;9.108;2024-01-07T11:47:22;3.70;99.90
6792;DHT22;3433;48.730;9.108;2024-01-07T11:49:49;3.50;99.90
6792;DHT22;3433;48.730;9.108;2024-01-07T11:52:16;3.60;99.90
6792;DHT22;3433;48.730;9.108;2024-01-07T11:54:43;3.60;99.90
6792;DHT22;3433;48.730;9.108;2024-01-07T11:57:10;4.00;99.90
6792;DHT22;3433;48.730;9.108;2024-01-07T11:59:38;3.70;99.90
6792;DHT22;3433;48.730;9.108;2024-01-07T12:02:07;3.80;99.90
6792;DHT22;3433;48.730;9.108;2024-01-07T12:04:34;4.00;99.90
6792;DHT22;3433;48.730;9.108;2024-01-07T12:07:01;3.50;99.90
6792;DHT22;3433;48.730;9.108;2024-01-07T12:09:29;3.50;99.90
6792;DHT22;3433;48.730;9.108;2024-01-07T12:11:56;3.70;99.90
6792;DHT22;3433;48.730;9.108;2024-01-07T12:14:23;3.70;99.90
6792;DHT22;3433;48.730;9.108;2024-01-07T12:16:52;4.00;99.90
6792;DHT22;3433;48.730;9.108;2024-01-07T12:19:19;4.10;99.90
6792;DHT22;3433;48.730;9.108;2024-01-07T12:21:47;3.90;99.90
6792;DHT22;3433;48.730;9.108;2024-01-07T12:24:17;3.80;99.90
6792;DHT22;3433;48.730;9.108;2024-01-07T12:26:44;3.40;99.90
6792;DHT22;3433;48.730;9.108;2024-01-07T12:29:13;3.50;99.90
6792;DHT22;3433;48.730;9.108;2024-01-07T12:31:40;3.30;99.90
6792;DHT22;3433;48.730;9.108;2024-01-07T12:34:09;3.30;99.90
6792;DHT22;3433;48.730;9.108;2024-01-07T12:36:35;3.40;99.90
6792;DHT22;3433;48.730;9.108;2024-01-07T12:39:02;3.60;99.90
6792;DHT22;3433;48.730;9.108;2024-01-07T12:41:29;3.90;99.90
6792;DHT22;3433;48.730;9.108;2024-01-07T12:43:56;3.80;99.90
6792;DHT22;3433;48.730;9.108;2024-01-07T12:46:23;3.80;99.90
6792;DHT22;3433;48.730;9.108;2024-01-07T12:48:50;3.40;99.90
6792;DHT22;3433;48.730;9.108;2024-01-07T12:51:19;3.70;99.90
6792;DHT22;3433;48.730;9.108;2024-01-07T12:53:46;3.70;99.90
6792;DHT22;3433;48.730;9.108;2024-01-07T12:56:13;3.40;99.90
6792;DHT22;3433;48.730;9.108;2024-01-07T12:58:39;3.30;99.90
6792;DHT22;3433;48.730;9.108;2024-01-07T13:01:06;3.40;99.90
6792;DHT22;3433;48.730;9.108;2024-01-07T13:03:33;3.20;99.90
6792;DHT22;3433;48.730;9.108;2024-01-07T13:06:00;3.40;99.90
6792;DHT22;3433;48.730;9.108;2024-01-07T13:08:29;3.70;99.90
6792;DHT22;3433;48.730;9.108;2024-01-07T13:10:56;3.40;99.90
6792;DHT22;3433;48.730;9.108;2024-01-07T13:13:24;3.80;99.90
6792;DHT22;3433;48.730;9.108;2024-01-07T13:15:50;3.90;99.90
6792;DHT22;3433;48.730;9.108;2024-01-07T13:18:17;3.40;99.90
6792;DHT22;3433;48.730;9.108;2024-01-07T13:20:46;3.40;99.90
6792;DHT22;3433;48.730;9.108;2024-01-07T13:23:13;3.10;99.90
6792;DHT22;3433;48.730;9.108;2024-01-07T13:25:41;3.10;99.90
6792;DHT22;3433;48.730;9.108;2024-01-07T13:28:08;3.50;99.90
6792;DHT22;3433;48.730;9.108;2024-01-07T13:30:37;3.80;99.90
6792;DHT22;3433;48.730;9.108;2024-01-07T13:33:05;3.80;99.90
6792;DHT22;3433;48.730;9.108;2024-01-07T13:35:33;3.80;99.90
6792;DHT22;3433;48.730;9.108;2024-01-07T13:38:00;3.60;99.90
6792;DHT22;3433;48.730;9.108;2024-01-07T13:40:27;3.70;99.90
6792;DHT22;3433;48.730;9.108;2024-01-07T13:42:55;3.70;99.90
6792;DHT22;3433;48.730;9.108;2024-01-07T13:45:22;3.50;99.90
6792;DHT22;3433;48.730;9.108;2024-01-07T13:47:49;3.40;99.90
6792;DHT22;3433;48.730;9.108;2024-01-07T13:50:16;3.20;99.90
6792;DHT22;3433;48.730;9.108;2024-01-07T13:52:43;3.10;99.90
6792;DHT22;3433;48.730;9.108;2024-01-07T13:55:10;2.90;99.90
6792;DHT22;3433;48.730;9.108;2024-01-07T13:57:39;3.10;99.90
6792;DHT22;3433;48.730;9.108;2024-01-07T14:00:09;2.90;99.90
6792;DHT22;3433;48.730;9.108;2024-01-07T14:02:38;3.00;99.90
6792;DHT22;3433;48.730;9.108;2024-01-07T14:05:06;3.30;99.90
6792;DHT22;3433;48.730;9.108;2024-01-07T14:07:35;3.30;99.90
6792;DHT22;3433;48.730;9.108;2024-01-07T14:10:03;3.40;99.90
6792;DHT22;3433;48.730;9.108;2024-01-07T14:12:31;3.30;99.90
6792;DHT22;3433;48.730;9.108;2024-01-07T14:14:58;3.40;99.90
6792;DHT22;3433;48.730;9.108;2024-01-07T14:17:27;3.40;99.90
6792;DHT22;3433;48.730;9.108;2024-01-07T14:19:53;3.40;99.90
6792;DHT22;3433;48.730;9.108;2024-01-07T14:22:20;3.30;99.90
6792;DHT22;3433;48.730;9.108;2024-01-07T14:24:48;3.00;99.90
6792;DHT22;3433;48.730;9.108;2024-01-07T14:27:14;3.00;99.90
6792;DHT22;3433;48.730;9.108;2024-01-07T14:29:42;2.60;99.90
6792;DHT22;3433;48.730;9.108;2024-01-07T14:32:09;2.60;99.90
6792;DHT22;3433;48.730;9.108;2024-01-07T14:34:39;2.40;99.90
6792;DHT22;3433;48.730;9.108;2024-01-07T14:37:07;2.70;99.90
6792;DHT22;3433;48.730;9.108;2024-01-07T14:39:35;2.20;99.90
6792;DHT22;3433;48.730;9.108;2024-01-07T14:42:02;2.10;99.90
6792;DHT22;3433;48.730;9.108;2024-01-07T14:44:29;2.40;99.90
6792;DHT22;3433;48.730;9.108;2024-01-07T14:46:56;2.40;99.90
6792;DHT22;3433;48.730;9.108;2024-01-07T14:49:23;2.40;99.90
6792;DHT22;3433;48.730;9.108;2024-01-07T14:51:51;2.40;99.90
6792;DHT22;3433;48.730;9.108;2024-01-07T14:54:18;2.60;99.90
6792;DHT22;3433;48.730;9.108;2024-01-07T14:56:45;2.70;99.90
6792;DHT22;3433;48.730;9.108;2024-01-07T14:59:12;2.90;99.90
6792;DHT22;3433;48.730;9.108;2024-01-07T15:01:39;2.80;99.90
6792;DHT22;3433;48.730;9.108;2024-01-07T15:04:09;3.10;99.90
6792;DHT22;3433;48.730;9.108;2024-01-07T15:06:40;3.30;99.90
6792;DHT22;3433;48.730;9.108;2024-01-07T15:09:09;3.30;99.90
6792;DHT22;3433;48.730;9.108;2024-01-07T15:11:36;3.30;99.90
6792;DHT22;3433;48.730;9.108;2024-01-07T15:14:04;3.10;99.90
6792;DHT22;3433;48.730;9.108;2024-01-07T15:16:34;3.20;99.90
6792;DHT22;3433;48.730;9.108;2024-01-07T15:19:02;2.90;99.90
6792;DHT22;3433;48.730;9.108;2024-01-07T15:21:29;2.60;99.90
6792;DHT22;3433;48.730;9.108;2024-01-07T15:23:56;2.20;99.90
6792;DHT22;3433;48.730;9.108;2024-01-07T15:26:24;2.40;99.90
6792;DHT22;3433;48.730;9.108;2024-01-07T15:28:51;2.40;99.90
6792;DHT22;3433;48.730;9.108;2024-01-07T15:31:18;2.00;99.90
6792;DHT22;3433;48.730;9.108;2024-01-07T15:33:45;1.90;99.90
6792;DHT22;3433;48.730;9.108;2024-01-07T15:36:12;1.90;99.90
6792;DHT22;3433;48.730;9.108;2024-01-07T15:38:39;2.20;99.90
6792;DHT22;3433;48.730;9.108;2024-01-07T15:41:06;1.70;99.90
6792;DHT22;3433;48.730;9.108;2024-01-07T15:43:34;1.60;99.90
6792;DHT22;3433;48.730;9.108;2024-01-07T15:46:02;1.70;99.90
6792;DHT22;3433;48.730;9.108;2024-01-07T15:48:29;2.10;99.90
6792;DHT22;3433;48.730;9.108;2024-01-07T15:50:57;2.30;99.90
6792;DHT22;3433;48.730;9.108;2024-01-07T15:53:24;2.60;99.90
6792;DHT22;3433;48.730;9.108;2024-01-07T15:55:59;2.70;99.90
6792;DHT22;3433;48.730;9.108;2024-01-07T15:58:26;2.70;99.90
6792;DHT22;3433;48.730;9.108;2024-01-07T16:00:57;2.80;99.90
6792;DHT22;3433;48.730;9.108;2024-01-07T16:03:25;2.60;99.90
6792;DHT22;3433;48.730;9.108;2024-01-07T16:05:52;2.60;99.90
6792;DHT22;3433;48.730;9.108;2024-01-07T16:08:19;2.80;99.90
6792;DHT22;3433;48.730;9.108;2024-01-07T16:10:46;2.70;99.90
6792;DHT22;3433;48.730;9.108;2024-01-07T16:13:13;2.50;99.90
6792;DHT22;3433;48.730;9.108;2024-01-07T16:15:40;2.70;99.90
6792;DHT22;3433;48.730;9.108;2024-01-07T16:18:08;2.80;99.90